createdAt,value
2017-11-18T00:03:22.060Z,100121.65
2017-11-18T00:05:54.618Z,100101.33
2017-11-18T00:08:28.150Z,100107.91
2017-11-18T00:11:02.421Z,100105.52
2017-11-18T00:16:16.143Z,100096.25
2017-11-18T00:18:49.201Z,100098.70
2017-11-18T00:21:21.020Z,100104.70
2017-11-18T00:23:56.110Z,100102.73
2017-11-18T00:26:28.091Z,100107.56
2017-11-18T00:29:00.000Z,100091.17
2017-11-18T00:31:35.534Z,100077.14
2017-11-18T00:34:10.361Z,100087.71
2017-11-18T00:36:45.689Z,100073.73
2017-11-18T00:39:18.405Z,100076.25
2017-11-18T00:41:49.962Z,100076.78
2017-11-18T00:44:23.186Z,100076.36
2017-11-18T00:46:54.527Z,100081.26
2017-11-18T00:49:27.116Z,100074.73
2017-11-18T00:51:59.062Z,100072.97
2017-11-18T00:54:30.220Z,100087.25
2017-11-18T00:57:04.029Z,100095.20
2017-11-18T00:59:35.985Z,100093.75
2017-11-18T01:02:07.245Z,100100.79
2017-11-18T01:04:38.476Z,100091.74
2017-11-18T01:07:09.614Z,100089.89
2017-11-18T01:09:40.691Z,100094.81
2017-11-18T01:12:12.347Z,100102.41
2017-11-18T01:14:46.012Z,100105.04
2017-11-18T01:17:18.984Z,100100.90
2017-11-18T01:19:52.780Z,100112.58
2017-11-18T01:22:24.296Z,100096.61
2017-11-18T01:24:56.228Z,100105.27
2017-11-18T01:27:27.925Z,100097.38
2017-11-18T01:29:59.469Z,100088.47
2017-11-18T01:32:31.864Z,100097.41
2017-11-18T01:35:03.895Z,100088.09
2017-11-18T01:37:36.482Z,100090.35
2017-11-18T01:40:10.949Z,100085.42
2017-11-18T01:42:43.332Z,100072.64
2017-11-18T01:45:15.649Z,100057.83
2017-11-18T01:47:48.856Z,100064.77
2017-11-18T01:50:21.994Z,100073.17
2017-11-18T01:52:53.749Z,100073.30
2017-11-18T01:55:29.098Z,100073.27
2017-11-18T01:58:02.009Z,100064.09
2017-11-18T02:00:35.574Z,100068.48
2017-11-18T02:03:06.966Z,100058.50
2017-11-18T02:05:39.688Z,100062.92
2017-11-18T02:08:11.446Z,100061.06
2017-11-18T02:10:44.573Z,100048.80
2017-11-18T02:13:16.317Z,100048.47
2017-11-18T02:15:47.770Z,100042.35
2017-11-18T02:18:20.076Z,100037.70
2017-11-18T02:20:52.461Z,100025.47
2017-11-18T02:23:24.750Z,100023.47
2017-11-18T02:25:58.148Z,100025.60
2017-11-18T02:28:29.730Z,100015.48
2017-11-18T02:31:02.534Z,100003.36
2017-11-18T02:33:34.270Z,100000.95
2017-11-18T02:36:05.887Z,100006.81
2017-11-18T02:38:37.763Z,99998.55
2017-11-18T02:41:10.370Z,99991.62
2017-11-18T02:43:42.393Z,99973.08
2017-11-18T02:46:15.657Z,99983.62
2017-11-18T02:48:48.889Z,99984.02
2017-11-18T02:51:20.491Z,99991.47
2017-11-18T02:53:53.100Z,99989.61
2017-11-18T02:56:26.716Z,99989.19
2017-11-18T02:59:01.798Z,99983.06
2017-11-18T03:01:33.288Z,99990.27
2017-11-18T03:04:04.869Z,99992.94
2017-11-18T03:06:37.060Z,99982.81
2017-11-18T03:09:08.740Z,99969.77
2017-11-18T03:11:48.363Z,99953.92
2017-11-18T03:14:19.906Z,99961.64
2017-11-18T03:16:53.052Z,99953.50
2017-11-18T03:19:25.801Z,99966.29
2017-11-18T03:21:57.289Z,99954.69
2017-11-18T03:24:29.120Z,99950.17
2017-11-18T03:27:00.572Z,99939.53
2017-11-18T03:29:32.199Z,99940.73
2017-11-18T03:32:04.197Z,99933.66
2017-11-18T03:34:35.273Z,99934.17
2017-11-18T03:37:07.147Z,99933.37
2017-11-18T03:39:39.181Z,99934.71
2017-11-18T03:42:10.293Z,99936.69
2017-11-18T03:44:41.779Z,99937.22
2017-11-18T03:47:13.509Z,99924.31
2017-11-18T03:49:45.603Z,99916.33
2017-11-18T03:52:16.698Z,99916.33
2017-11-18T03:54:47.728Z,99914.19
2017-11-18T03:57:19.390Z,99912.50
2017-11-18T03:59:50.864Z,99910.50
2017-11-18T04:02:22.635Z,99908.25
2017-11-18T04:04:54.204Z,99904.14
2017-11-18T04:07:25.869Z,99904.13
2017-11-18T04:09:58.161Z,99891.76
2017-11-18T04:12:30.717Z,99901.08
2017-11-18T04:15:02.367Z,99896.43
2017-11-18T04:17:34.954Z,99889.77
2017-11-18T04:20:11.660Z,99886.31
2017-11-18T04:22:43.386Z,99892.02
2017-11-18T04:25:14.981Z,99888.81
2017-11-18T04:27:46.450Z,99889.61
2017-11-18T04:30:18.352Z,99890.27
2017-11-18T04:32:49.809Z,99890.41
2017-11-18T04:35:24.713Z,99889.88
2017-11-18T04:37:56.951Z,99882.55
2017-11-18T04:40:28.412Z,99880.70
2017-11-18T04:43:00.444Z,99883.34
2017-11-18T04:45:32.610Z,99880.94
2017-11-18T04:48:04.321Z,99871.89
2017-11-18T04:50:36.567Z,99881.06
2017-11-18T04:53:08.691Z,99877.33
2017-11-18T04:55:41.054Z,99873.21
2017-11-18T04:58:14.486Z,99877.72
2017-11-18T05:00:45.780Z,99884.25
2017-11-18T05:03:17.470Z,99874.00
2017-11-18T05:05:49.932Z,99875.20
2017-11-18T05:08:21.228Z,99873.22
2017-11-18T05:10:53.049Z,99882.41
2017-11-18T05:13:24.706Z,99870.80
2017-11-18T05:15:57.390Z,99879.19
2017-11-18T05:18:29.386Z,99877.48
2017-11-18T05:21:01.324Z,99868.54
2017-11-18T05:23:34.581Z,99866.56
2017-11-18T05:26:06.823Z,99866.29
2017-11-18T05:28:39.221Z,99866.95
2017-11-18T05:31:11.942Z,99862.82
2017-11-18T05:33:43.493Z,99860.14
2017-11-18T05:36:15.979Z,99849.74
2017-11-18T05:38:48.917Z,99864.80
2017-11-18T05:41:20.577Z,99850.69
2017-11-18T05:43:53.111Z,99852.95
2017-11-18T05:46:25.050Z,99856.41
2017-11-18T05:48:59.837Z,99844.71
2017-11-18T05:51:31.957Z,99840.58
2017-11-18T05:54:04.009Z,99834.75
2017-11-18T05:56:36.179Z,99830.09
2017-11-18T05:59:11.809Z,99828.77
2017-11-18T06:01:43.653Z,99825.71
2017-11-18T06:04:16.012Z,99828.63
2017-11-18T06:06:48.929Z,99841.69
2017-11-18T06:09:23.971Z,99837.69
2017-11-18T06:11:57.796Z,99813.59
2017-11-18T06:14:31.621Z,99834.77
2017-11-18T06:17:06.068Z,99830.50
2017-11-18T06:19:38.792Z,99827.30
2017-11-18T06:22:10.613Z,99827.44
2017-11-18T06:24:43.779Z,99815.84
2017-11-18T06:27:15.508Z,99823.30
2017-11-18T06:29:47.344Z,99827.83
2017-11-18T06:32:18.734Z,99823.57
2017-11-18T06:34:50.321Z,99826.36
2017-11-18T06:37:23.023Z,99824.36
2017-11-18T06:39:56.772Z,99817.81
2017-11-18T06:42:28.402Z,99821.95
2017-11-18T06:45:02.211Z,99822.60
2017-11-18T06:47:33.479Z,99823.81
2017-11-18T06:50:07.392Z,99824.58
2017-11-18T06:52:40.847Z,99837.63
2017-11-18T06:55:13.538Z,99831.77
2017-11-18T06:57:47.717Z,99828.72
2017-11-18T07:00:20.002Z,99835.63
2017-11-18T07:02:51.395Z,99833.63
2017-11-18T07:05:23.185Z,99834.97
2017-11-18T07:07:56.138Z,99822.31
2017-11-18T07:10:29.506Z,99822.57
2017-11-18T07:13:03.096Z,99830.42
2017-11-18T07:15:36.084Z,99817.13
2017-11-18T07:18:10.551Z,99821.38
2017-11-18T07:20:41.589Z,99825.66
2017-11-18T07:23:13.222Z,99823.14
2017-11-18T07:25:49.369Z,99817.53
2017-11-18T07:28:20.710Z,99811.02
2017-11-18T07:30:52.961Z,99804.91
2017-11-18T07:33:24.909Z,99809.83
2017-11-18T07:35:56.437Z,99808.91
2017-11-18T07:38:28.000Z,99810.91
2017-11-18T07:40:59.172Z,99807.33
2017-11-18T07:43:32.176Z,99806.27
2017-11-18T07:46:03.135Z,99796.30
2017-11-18T07:48:34.388Z,99793.51
2017-11-18T07:51:05.821Z,99797.23
2017-11-18T07:53:37.203Z,99795.91
2017-11-18T07:56:08.374Z,99790.31
2017-11-18T07:58:40.024Z,99782.84
2017-11-18T08:01:11.905Z,99783.26
2017-11-18T08:03:44.567Z,99788.45
2017-11-18T08:06:17.576Z,99781.80
2017-11-18T08:08:53.667Z,99782.08
2017-11-18T08:11:28.414Z,99774.62
2017-11-18T08:14:03.012Z,99764.89
2017-11-18T08:16:34.204Z,99774.47
2017-11-18T08:19:05.833Z,99766.75
2017-11-18T08:21:37.666Z,99768.88
2017-11-18T08:24:10.542Z,99765.55
2017-11-18T08:26:47.421Z,99756.36
2017-11-18T08:29:23.876Z,99760.22
2017-11-18T08:32:02.355Z,99750.25
2017-11-18T08:34:35.825Z,99746.52
2017-11-18T08:37:08.845Z,99744.27
2017-11-18T08:39:39.964Z,99740.50
2017-11-18T08:42:11.503Z,99742.77
2017-11-18T08:44:45.005Z,99739.86
2017-11-18T08:47:17.621Z,99731.33
2017-11-18T08:49:50.925Z,99738.52
2017-11-18T08:52:26.465Z,99729.07
2017-11-18T08:55:11.047Z,99724.00
2017-11-18T08:57:42.400Z,99730.66
2017-11-18T09:00:19.414Z,99730.80
2017-11-18T09:03:04.946Z,99701.91
2017-11-18T09:07:00.757Z,99728.80
2017-11-18T09:09:34.502Z,99721.33
2017-11-18T09:12:08.859Z,99717.75
2017-11-18T09:14:41.835Z,99712.42
2017-11-18T09:17:22.242Z,99684.85
2017-11-18T09:19:56.973Z,99702.17
2017-11-18T09:22:32.770Z,99694.58
2017-11-18T09:25:10.519Z,99702.69
2017-11-18T09:27:49.262Z,99700.58
2017-11-18T09:30:21.808Z,99690.03
2017-11-18T09:32:53.528Z,99692.97
2017-11-18T09:35:27.818Z,99692.97
2017-11-18T09:38:00.749Z,99694.95
2017-11-18T09:40:32.057Z,99683.34
2017-11-18T09:43:05.569Z,99689.03
2017-11-18T09:45:36.831Z,99677.02
2017-11-18T09:48:13.105Z,99677.52
2017-11-18T09:50:44.069Z,99666.59
2017-11-18T09:53:18.013Z,99672.44
2017-11-18T09:55:49.496Z,99668.44
2017-11-18T09:58:20.601Z,99673.61
2017-11-18T10:00:51.814Z,99669.44
2017-11-18T10:03:23.622Z,99669.84
2017-11-18T10:05:54.584Z,99670.64
2017-11-18T10:08:25.518Z,99667.98
2017-11-18T10:10:58.889Z,99656.91
2017-11-18T10:14:54.856Z,99659.71
2017-11-18T10:17:28.204Z,99634.85
2017-11-18T10:20:01.601Z,99613.30
2017-11-18T10:22:34.537Z,99639.19
2017-11-18T10:25:11.755Z,99613.46
2017-11-18T10:27:43.224Z,99614.13
2017-11-18T10:30:15.297Z,99598.13
2017-11-18T10:32:46.376Z,99610.92
2017-11-18T10:35:17.723Z,99599.20
2017-11-18T10:37:48.884Z,99595.20
2017-11-18T10:40:19.907Z,99598.80
2017-11-18T10:42:50.895Z,99593.10
2017-11-18T10:45:32.785Z,99581.14
2017-11-18T10:48:05.162Z,99579.18
2017-11-18T10:50:36.468Z,99585.84
2017-11-18T10:53:11.497Z,99574.82
2017-11-18T10:55:43.811Z,99570.42
2017-11-18T10:58:18.174Z,99563.27
2017-11-18T11:00:57.037Z,99563.13
2017-11-18T11:03:28.447Z,99556.10
2017-11-18T11:06:01.852Z,99520.73
2017-11-18T11:08:33.122Z,99553.97
2017-11-18T11:11:06.459Z,99536.16
2017-11-18T11:13:42.085Z,99553.47
2017-11-18T11:16:14.657Z,99563.46
2017-11-18T11:18:48.672Z,99530.56
2017-11-18T11:21:22.775Z,99535.92
2017-11-18T11:23:58.617Z,99525.80
2017-11-18T11:26:31.991Z,99520.11
2017-11-18T11:29:04.651Z,99521.00
2017-11-18T11:31:37.388Z,99528.20
2017-11-18T11:34:10.414Z,99518.70
2017-11-18T11:36:41.636Z,99515.73
2017-11-18T11:39:12.896Z,99505.71
2017-11-18T11:41:44.543Z,99492.39
2017-11-18T11:44:16.125Z,99494.56
2017-11-18T11:46:51.737Z,99511.58
2017-11-18T11:49:24.435Z,99494.08
2017-11-18T11:52:03.714Z,99491.59
2017-11-18T11:54:41.814Z,99483.16
2017-11-18T11:57:13.611Z,99488.03
2017-11-18T11:59:50.261Z,99488.69
2017-11-18T12:02:22.401Z,99491.50
2017-11-18T12:04:53.797Z,99493.77
2017-11-18T12:07:25.797Z,99493.50
2017-11-18T12:09:58.085Z,99488.83
2017-11-18T12:12:30.180Z,99485.81
2017-11-18T12:15:05.587Z,99485.55
2017-11-18T12:20:21.863Z,99497.19
2017-11-18T12:22:59.897Z,99483.28
2017-11-18T12:25:31.788Z,99495.77
2017-11-18T12:28:03.192Z,99494.20
2017-11-18T12:30:34.903Z,99499.71
2017-11-18T12:33:06.935Z,99493.72
2017-11-18T12:35:38.440Z,99493.86
2017-11-18T12:38:09.947Z,99480.44
2017-11-18T12:40:41.589Z,99484.34
2017-11-18T12:43:12.887Z,99481.05
2017-11-18T12:45:44.053Z,99477.72
2017-11-18T12:48:16.106Z,99478.82
2017-11-18T12:50:47.722Z,99465.01
2017-11-18T12:53:19.301Z,99459.41
2017-11-18T12:55:50.657Z,99436.92
2017-11-18T12:58:22.169Z,99449.97
2017-11-18T13:00:53.661Z,99436.95
2017-11-18T13:03:24.734Z,99436.29
2017-11-18T13:05:55.862Z,99430.86
2017-11-18T13:08:27.170Z,99433.53
2017-11-18T13:10:58.525Z,99419.72
2017-11-18T13:13:30.435Z,99419.05
2017-11-18T13:16:02.705Z,99409.34
2017-11-18T13:18:34.369Z,99412.00
2017-11-18T13:21:05.841Z,99409.77
2017-11-18T13:23:36.823Z,99411.23
2017-11-18T13:26:07.939Z,99403.11
2017-11-18T13:28:39.084Z,99391.00
2017-11-18T13:31:11.514Z,99387.23
2017-11-18T13:33:43.498Z,99380.91
2017-11-18T13:36:43.593Z,99365.91
2017-11-18T13:40:20.832Z,99367.02
2017-11-18T13:42:54.103Z,99377.97
2017-11-18T13:45:25.480Z,99369.00
2017-11-18T13:47:56.697Z,99381.65
2017-11-18T13:50:28.359Z,99364.08
2017-11-18T13:52:59.537Z,99368.45
2017-11-18T13:55:31.038Z,99356.61
2017-11-18T13:58:02.503Z,99350.22
2017-11-18T14:00:35.422Z,99361.01
2017-11-18T14:03:10.836Z,99349.95
2017-11-18T14:05:42.071Z,99331.97
2017-11-18T14:08:13.512Z,99305.46
2017-11-18T14:10:44.909Z,99306.78
2017-11-18T14:13:16.384Z,99287.20
2017-11-18T14:15:48.329Z,99286.34
2017-11-18T14:18:19.883Z,99275.83
2017-11-18T14:20:51.891Z,99278.45
2017-11-18T14:23:23.054Z,99274.63
2017-11-18T14:25:54.490Z,99267.80
2017-11-18T14:28:26.328Z,99271.39
2017-11-18T14:31:19.879Z,99243.80
2017-11-18T14:33:53.971Z,99262.51
2017-11-18T14:36:27.102Z,99260.16
2017-11-18T14:38:58.525Z,99258.32
2017-11-18T14:41:30.321Z,99260.91
2017-11-18T14:44:02.576Z,99253.23
2017-11-18T14:46:34.384Z,99251.38
2017-11-18T14:49:06.870Z,99235.32
2017-11-18T14:53:18.131Z,99235.12
2017-11-18T14:56:00.064Z,99246.89
2017-11-18T14:58:36.245Z,99239.25
2017-11-18T15:01:17.876Z,99247.12
2017-11-18T15:04:02.180Z,99232.30
2017-11-18T15:06:34.586Z,99255.81
2017-11-18T15:09:08.991Z,99248.36
2017-11-18T15:11:41.129Z,99249.43
2017-11-18T15:14:13.974Z,99239.98
2017-11-18T15:16:56.881Z,99238.56
2017-11-18T15:19:28.575Z,99241.49
2017-11-18T15:22:00.958Z,99237.63
2017-11-18T15:24:36.854Z,99234.39
2017-11-18T15:27:12.516Z,99225.69
2017-11-18T15:33:54.916Z,99233.88
2017-11-18T15:36:40.223Z,99227.87
2017-11-18T15:39:13.294Z,99231.98
2017-11-18T15:41:46.507Z,99225.19
2017-11-18T15:44:18.759Z,99227.19
2017-11-18T15:46:51.717Z,99218.27
2017-11-18T15:49:28.579Z,99221.59
2017-11-18T15:52:01.809Z,99209.75
2017-11-18T15:54:37.223Z,99207.77
2017-11-18T15:57:09.234Z,99211.37
2017-11-18T15:59:41.816Z,99202.11
2017-11-18T16:02:13.298Z,99224.03
2017-11-18T16:04:44.989Z,99217.68
2017-11-18T16:07:17.362Z,99202.52
2017-11-18T16:09:48.998Z,99202.83
2017-11-18T16:12:20.245Z,99218.41
2017-11-18T16:14:53.451Z,99222.94
2017-11-18T16:17:26.143Z,99213.10
2017-11-18T16:19:59.501Z,99212.07
2017-11-18T16:22:32.350Z,99210.23
2017-11-18T16:25:09.154Z,99216.11
2017-11-18T16:27:42.701Z,99219.17
2017-11-18T16:30:15.940Z,99207.56
2017-11-18T16:32:47.635Z,99201.88
2017-11-18T16:35:19.802Z,99198.41
2017-11-18T16:37:51.863Z,99194.95
2017-11-18T16:40:23.462Z,99204.68
2017-11-18T16:42:57.969Z,99192.98
2017-11-18T16:45:29.456Z,99179.13
2017-11-18T16:48:01.431Z,99179.57
2017-11-18T16:50:33.048Z,99194.05
2017-11-18T16:53:05.069Z,99180.91
2017-11-18T16:55:37.849Z,99173.50
2017-11-18T16:58:10.855Z,99176.39
2017-11-18T17:00:43.123Z,99181.70
2017-11-18T17:03:15.097Z,99165.22
2017-11-18T17:05:47.790Z,99177.84
2017-11-18T17:08:25.393Z,99173.67
2017-11-18T17:10:57.131Z,99177.26
2017-11-18T17:13:30.628Z,99186.40
2017-11-18T17:16:03.166Z,99176.77
2017-11-18T17:18:36.496Z,99180.47
2017-11-18T17:21:08.915Z,99186.98
2017-11-18T17:23:40.855Z,99176.02
2017-11-18T17:26:14.330Z,99173.58
2017-11-18T17:28:45.892Z,99182.62
2017-11-18T17:31:18.737Z,99178.36
2017-11-18T17:33:50.944Z,99168.23
2017-11-18T17:36:22.701Z,99166.52
2017-11-18T17:38:54.126Z,99159.98
2017-11-18T17:41:26.564Z,99181.03
2017-11-18T17:43:58.019Z,99182.50
2017-11-18T17:46:31.309Z,99189.06
2017-11-18T17:49:02.588Z,99179.08
2017-11-18T17:51:34.653Z,99166.45
2017-11-18T17:54:06.034Z,99164.51
2017-11-18T17:56:37.654Z,99170.36
2017-11-18T17:59:10.259Z,99169.70
2017-11-18T18:01:41.921Z,99167.35
2017-11-18T18:04:13.528Z,99169.58
2017-11-18T18:06:45.161Z,99161.36
2017-11-18T18:09:16.814Z,99171.08
2017-11-18T18:11:48.949Z,99160.44
2017-11-18T18:14:20.239Z,99150.05
2017-11-18T18:16:51.853Z,99158.05
2017-11-18T18:19:23.506Z,99156.99
2017-11-18T18:21:55.952Z,99155.42
2017-11-18T18:24:27.499Z,99161.03
2017-11-18T18:26:58.662Z,99152.42
2017-11-18T18:29:32.054Z,99161.70
2017-11-18T18:32:03.539Z,99159.08
2017-11-18T18:34:34.824Z,99160.14
2017-11-18T18:37:06.740Z,99163.34
2017-11-18T18:39:38.801Z,99163.22
2017-11-18T18:42:10.195Z,99160.87
2017-11-18T18:44:43.697Z,99163.63
2017-11-18T18:47:15.309Z,99157.16
2017-11-18T18:49:46.785Z,99158.61
2017-11-18T18:52:18.114Z,99161.77
2017-11-18T18:54:50.651Z,99159.62
2017-11-18T18:57:21.689Z,99161.03
2017-11-18T18:59:52.899Z,99153.49
2017-11-18T19:02:24.559Z,99157.38
2017-11-18T19:04:55.874Z,99150.79
2017-11-18T19:07:27.868Z,99159.91
2017-11-18T19:09:59.492Z,99160.80
2017-11-18T19:12:30.969Z,99158.92
2017-11-18T19:15:03.166Z,99169.42
2017-11-18T19:17:35.690Z,99164.89
2017-11-18T19:20:07.079Z,99163.56
2017-11-18T19:22:38.207Z,99173.80
2017-11-18T19:25:11.163Z,99181.77
2017-11-18T19:27:42.205Z,99172.69
2017-11-18T19:30:14.549Z,99171.08
2017-11-18T19:32:45.717Z,99183.99
2017-11-18T19:35:18.628Z,99190.80
2017-11-18T19:37:54.336Z,99173.29
2017-11-18T19:40:28.113Z,99173.05
2017-11-18T19:43:11.748Z,99176.50
2017-11-18T19:45:49.321Z,99195.14
2017-11-18T19:48:20.846Z,99191.94
2017-11-18T19:50:52.835Z,99189.68
2017-11-18T19:53:24.529Z,99205.52
2017-11-18T19:55:56.110Z,99192.62
2017-11-18T19:58:27.660Z,99198.25
2017-11-18T20:00:59.600Z,99202.65
2017-11-18T20:03:32.613Z,99211.98
2017-11-18T20:06:15.165Z,99210.16
2017-11-18T20:08:47.731Z,99212.55
2017-11-18T20:11:20.095Z,99207.77
2017-11-18T20:13:52.797Z,99207.78
2017-11-18T20:16:26.180Z,99206.09
2017-11-18T20:18:57.727Z,99215.68
2017-11-18T20:21:29.443Z,99214.22
2017-11-18T20:24:01.157Z,99213.19
2017-11-18T20:26:34.391Z,99209.87
2017-11-18T20:29:06.865Z,99204.95
2017-11-18T20:31:40.083Z,99211.91
2017-11-18T20:34:12.194Z,99200.61
2017-11-18T20:36:50.213Z,99196.88
2017-11-18T20:39:23.408Z,99193.02
2017-11-18T20:41:55.285Z,99195.67
2017-11-18T20:44:27.116Z,99198.96
2017-11-18T20:46:58.543Z,99202.41
2017-11-18T20:49:30.823Z,99183.86
2017-11-18T20:52:02.707Z,99194.06
2017-11-18T20:54:34.245Z,99186.85
2017-11-18T20:57:18.618Z,99179.95
2017-11-18T21:00:04.227Z,99175.35
2017-11-18T21:02:37.361Z,99173.03
2017-11-18T21:05:09.484Z,99178.62
2017-11-18T21:07:41.085Z,99171.84
2017-11-18T21:15:24.565Z,99167.44
2017-11-18T21:18:01.169Z,99176.77
2017-11-18T21:20:32.573Z,99181.95
2017-11-18T21:23:05.453Z,99178.09
2017-11-18T21:25:39.771Z,99164.80
2017-11-18T21:28:12.498Z,99165.63
2017-11-18T21:30:44.499Z,99163.30
2017-11-18T21:33:16.906Z,99155.84
2017-11-18T21:35:49.471Z,99151.32
2017-11-18T21:38:23.143Z,99154.66
2017-11-18T21:40:55.331Z,99161.75
2017-11-18T21:43:27.710Z,99141.39
2017-11-18T21:45:59.394Z,99143.26
2017-11-18T21:48:31.100Z,99157.10
2017-11-18T21:51:09.257Z,99147.80
2017-11-18T21:53:41.736Z,99155.64
2017-11-18T21:56:13.729Z,99156.58
2017-11-18T21:58:46.652Z,99141.46
2017-11-18T22:01:18.407Z,99142.93
2017-11-18T22:03:51.363Z,99146.27
2017-11-18T22:06:23.804Z,99140.45
2017-11-18T22:08:55.544Z,99139.78
2017-11-18T22:11:28.464Z,99146.18
2017-11-18T22:13:59.894Z,99143.80
2017-11-18T22:16:33.712Z,99149.55
2017-11-18T22:19:05.560Z,99144.24
2017-11-18T22:21:37.674Z,99124.09
2017-11-18T22:24:09.877Z,99138.00
2017-11-18T22:26:42.455Z,99132.05
2017-11-18T22:29:14.501Z,99133.33
2017-11-18T22:31:46.600Z,99143.97
2017-11-18T22:34:18.157Z,99138.20
2017-11-18T22:36:49.752Z,99133.53
2017-11-18T22:39:21.525Z,99132.14
2017-11-18T22:41:53.871Z,99127.95
2017-11-18T22:44:25.298Z,99129.89
2017-11-18T22:46:57.094Z,99133.42
2017-11-18T22:49:29.605Z,99128.62
2017-11-18T22:52:01.731Z,99122.84
2017-11-18T22:54:33.372Z,99129.08
2017-11-18T22:57:05.310Z,99130.02
2017-11-18T22:59:37.122Z,99113.64
2017-11-18T23:02:09.368Z,99112.72
2017-11-18T23:04:42.434Z,99103.81
2017-11-18T23:07:14.116Z,99105.15
2017-11-18T23:09:47.378Z,99103.47
2017-11-18T23:12:20.005Z,99098.16
2017-11-18T23:14:52.947Z,99093.11
2017-11-18T23:17:25.377Z,99089.56
2017-11-18T23:19:57.487Z,99084.65
2017-11-18T23:22:30.517Z,99084.92
2017-11-18T23:25:02.414Z,99083.91
2017-11-18T23:27:34.182Z,99083.25
2017-11-18T23:30:07.968Z,99079.17
2017-11-18T23:32:39.623Z,99073.86
2017-11-18T23:35:12.570Z,99075.91
2017-11-18T23:37:45.829Z,99076.58
2017-11-18T23:40:17.624Z,99072.98
2017-11-18T23:42:49.914Z,99071.39
2017-11-18T23:45:20.926Z,99066.48
2017-11-18T23:47:53.290Z,99062.54
2017-11-18T23:50:26.256Z,99062.95
2017-11-18T23:52:58.052Z,99063.63
2017-11-18T23:55:29.869Z,99060.61
2017-11-18T23:58:01.074Z,99063.27
